sensor_id;sensor_type;location;lat;lon;timestamp;P1;durP1;ratioP1;P2;durP2;ratioP2
36373;SDS011;22399;51.346;12.372;2023-03-03T00:01:33;48.10;;;11.68;;
36373;SDS011;22399;51.346;12.372;2023-03-03T00:04:01;41.30;;;10.10;;
36373;SDS011;22399;51.346;12.372;2023-03-03T00:06:30;36.20;;;9.60;;
36373;SDS011;22399;51.346;12.372;2023-03-03T00:08:58;36.28;;;9.35;;
36373;SDS011;22399;51.346;12.372;2023-03-03T00:11:28;37.65;;;9.55;;
36373;SDS011;22399;51.346;12.372;2023-03-03T00:13:56;31.88;;;8.07;;
36373;SDS011;22399;51.346;12.372;2023-03-03T00:16:27;33.13;;;8.63;;
36373;SDS011;22399;51.346;12.372;2023-03-03T00:18:58;47.38;;;8.75;;
36373;SDS011;22399;51.346;12.372;2023-03-03T00:21:27;54.88;;;10.02;;
36373;SDS011;22399;51.346;12.372;2023-03-03T00:24:01;40.50;;;8.95;;
36373;SDS011;22399;51.346;12.372;2023-03-03T00:26:43;30.77;;;8.38;;
36373;SDS011;22399;51.346;12.372;2023-03-03T00:32:11;35.38;;;9.80;;
36373;SDS011;22399;51.346;12.372;2023-03-03T00:34:48;40.80;;;10.32;;
36373;SDS011;22399;51.346;12.372;2023-03-03T00:37:20;26.73;;;7.15;;
36373;SDS011;22399;51.346;12.372;2023-03-03T00:39:55;27.90;;;8.48;;
36373;SDS011;22399;51.346;12.372;2023-03-03T00:42:30;39.90;;;8.73;;
36373;SDS011;22399;51.346;12.372;2023-03-03T00:45:04;32.88;;;8.55;;
36373;SDS011;22399;51.346;12.372;2023-03-03T00:47:45;27.20;;;7.40;;
36373;SDS011;22399;51.346;12.372;2023-03-03T00:50:17;33.58;;;8.35;;
36373;SDS011;22399;51.346;12.372;2023-03-03T00:52:58;32.70;;;8.98;;
36373;SDS011;22399;51.346;12.372;2023-03-03T00:55:32;33.55;;;7.80;;
36373;SDS011;22399;51.346;12.372;2023-03-03T00:58:03;34.95;;;8.05;;
36373;SDS011;22399;51.346;12.372;2023-03-03T01:00:36;24.33;;;6.63;;
36373;SDS011;22399;51.346;12.372;2023-03-03T01:03:07;25.35;;;7.03;;
36373;SDS011;22399;51.346;12.372;2023-03-03T01:05:36;28.30;;;8.10;;
36373;SDS011;22399;51.346;12.372;2023-03-03T01:08:05;20.77;;;6.47;;
36373;SDS011;22399;51.346;12.372;2023-03-03T01:10:34;31.00;;;7.68;;
36373;SDS011;22399;51.346;12.372;2023-03-03T01:13:06;29.80;;;7.82;;
36373;SDS011;22399;51.346;12.372;2023-03-03T01:15:35;35.63;;;8.07;;
36373;SDS011;22399;51.346;12.372;2023-03-03T01:18:04;26.30;;;7.32;;
36373;SDS011;22399;51.346;12.372;2023-03-03T01:20:33;25.48;;;7.40;;
36373;SDS011;22399;51.346;12.372;2023-03-03T01:23:01;28.70;;;8.57;;
36373;SDS011;22399;51.346;12.372;2023-03-03T01:25:30;25.17;;;6.97;;
36373;SDS011;22399;51.346;12.372;2023-03-03T01:27:59;30.88;;;7.38;;
36373;SDS011;22399;51.346;12.372;2023-03-03T01:30:29;28.65;;;7.30;;
36373;SDS011;22399;51.346;12.372;2023-03-03T01:32:58;22.65;;;6.75;;
36373;SDS011;22399;51.346;12.372;2023-03-03T01:35:26;29.33;;;7.38;;
36373;SDS011;22399;51.346;12.372;2023-03-03T01:37:55;27.52;;;7.53;;
36373;SDS011;22399;51.346;12.372;2023-03-03T01:40:25;30.42;;;8.02;;
36373;SDS011;22399;51.346;12.372;2023-03-03T01:42:55;34.45;;;7.28;;
36373;SDS011;22399;51.346;12.372;2023-03-03T01:45:25;23.92;;;6.78;;
36373;SDS011;22399;51.346;12.372;2023-03-03T01:47:57;30.83;;;7.93;;
36373;SDS011;22399;51.346;12.372;2023-03-03T01:50:30;21.50;;;7.25;;
36373;SDS011;22399;51.346;12.372;2023-03-03T01:53:04;34.63;;;7.07;;
36373;SDS011;22399;51.346;12.372;2023-03-03T01:55:38;28.67;;;7.68;;
36373;SDS011;22399;51.346;12.372;2023-03-03T01:58:09;25.33;;;6.47;;
36373;SDS011;22399;51.346;12.372;2023-03-03T02:00:41;35.28;;;7.78;;
36373;SDS011;22399;51.346;12.372;2023-03-03T02:03:14;24.80;;;7.60;;
36373;SDS011;22399;51.346;12.372;2023-03-03T02:05:43;19.55;;;6.18;;
36373;SDS011;22399;51.346;12.372;2023-03-03T02:08:12;29.40;;;7.00;;
36373;SDS011;22399;51.346;12.372;2023-03-03T02:10:45;29.05;;;7.07;;
36373;SDS011;22399;51.346;12.372;2023-03-03T02:13:14;26.85;;;6.57;;
36373;SDS011;22399;51.346;12.372;2023-03-03T02:15:43;25.08;;;5.68;;
36373;SDS011;22399;51.346;12.372;2023-03-03T02:18:12;23.10;;;6.45;;
36373;SDS011;22399;51.346;12.372;2023-03-03T02:20:48;30.77;;;7.53;;
36373;SDS011;22399;51.346;12.372;2023-03-03T02:23:25;32.63;;;6.47;;
36373;SDS011;22399;51.346;12.372;2023-03-03T02:26:08;20.38;;;6.03;;
36373;SDS011;22399;51.346;12.372;2023-03-03T02:28:38;33.92;;;6.55;;
36373;SDS011;22399;51.346;12.372;2023-03-03T02:31:10;22.60;;;6.30;;
36373;SDS011;22399;51.346;12.372;2023-03-03T02:33:43;19.38;;;5.95;;
36373;SDS011;22399;51.346;12.372;2023-03-03T02:36:13;19.05;;;5.75;;
36373;SDS011;22399;51.346;12.372;2023-03-03T02:38:45;18.05;;;6.22;;
36373;SDS011;22399;51.346;12.372;2023-03-03T02:41:25;23.08;;;5.25;;
36373;SDS011;22399;51.346;12.372;2023-03-03T02:44:01;27.23;;;5.35;;
36373;SDS011;22399;51.346;12.372;2023-03-03T02:46:32;14.60;;;4.60;;
36373;SDS011;22399;51.346;12.372;2023-03-03T02:49:02;17.85;;;4.95;;
36373;SDS011;22399;51.346;12.372;2023-03-03T02:51:31;13.00;;;4.72;;
36373;SDS011;22399;51.346;12.372;2023-03-03T02:54:00;21.90;;;5.72;;
36373;SDS011;22399;51.346;12.372;2023-03-03T02:56:32;13.73;;;4.35;;
36373;SDS011;22399;51.346;12.372;2023-03-03T02:59:02;15.18;;;4.65;;
36373;SDS011;22399;51.346;12.372;2023-03-03T03:01:36;15.98;;;4.68;;
36373;SDS011;22399;51.346;12.372;2023-03-03T03:04:10;17.95;;;5.10;;
36373;SDS011;22399;51.346;12.372;2023-03-03T03:06:43;19.77;;;4.80;;
36373;SDS011;22399;51.346;12.372;2023-03-03T03:09:14;18.48;;;5.55;;
36373;SDS011;22399;51.346;12.372;2023-03-03T03:11:46;17.75;;;5.22;;
36373;SDS011;22399;51.346;12.372;2023-03-03T03:14:18;18.42;;;4.75;;
36373;SDS011;22399;51.346;12.372;2023-03-03T03:16:47;12.85;;;3.88;;
36373;SDS011;22399;51.346;12.372;2023-03-03T03:19:15;10.43;;;3.58;;
36373;SDS011;22399;51.346;12.372;2023-03-03T03:21:44;15.50;;;3.85;;
36373;SDS011;22399;51.346;12.372;2023-03-03T03:24:12;17.77;;;5.05;;
36373;SDS011;22399;51.346;12.372;2023-03-03T03:26:47;20.77;;;6.40;;
36373;SDS011;22399;51.346;12.372;2023-03-03T03:29:15;15.80;;;5.38;;
36373;SDS011;22399;51.346;12.372;2023-03-03T03:31:44;19.80;;;4.70;;
36373;SDS011;22399;51.346;12.372;2023-03-03T03:34:12;17.48;;;5.63;;
36373;SDS011;22399;51.346;12.372;2023-03-03T03:36:42;16.63;;;5.70;;
36373;SDS011;22399;51.346;12.372;2023-03-03T03:39:13;19.52;;;5.03;;
36373;SDS011;22399;51.346;12.372;2023-03-03T03:41:46;16.42;;;4.90;;
36373;SDS011;22399;51.346;12.372;2023-03-03T03:44:15;14.02;;;4.32;;
36373;SDS011;22399;51.346;12.372;2023-03-03T03:46:43;12.13;;;4.03;;
36373;SDS011;22399;51.346;12.372;2023-03-03T03:49:11;25.27;;;6.13;;
36373;SDS011;22399;51.346;12.372;2023-03-03T03:51:40;14.27;;;5.43;;
36373;SDS011;22399;51.346;12.372;2023-03-03T03:54:12;12.00;;;4.63;;
36373;SDS011;22399;51.346;12.372;2023-03-03T03:56:41;15.18;;;4.13;;
36373;SDS011;22399;51.346;12.372;2023-03-03T03:59:11;14.45;;;3.85;;
36373;SDS011;22399;51.346;12.372;2023-03-03T04:01:40;15.00;;;5.22;;
36373;SDS011;22399;51.346;12.372;2023-03-03T04:04:09;13.73;;;4.65;;
36373;SDS011;22399;51.346;12.372;2023-03-03T04:06:38;22.95;;;4.82;;
36373;SDS011;22399;51.346;12.372;2023-03-03T04:09:06;6.68;;;2.85;;
36373;SDS011;22399;51.346;12.372;2023-03-03T04:11:35;10.48;;;3.78;;
36373;SDS011;22399;51.346;12.372;2023-03-03T04:14:05;13.57;;;3.38;;
36373;SDS011;22399;51.346;12.372;2023-03-03T04:16:36;16.25;;;3.60;;
36373;SDS011;22399;51.346;12.372;2023-03-03T04:19:04;11.50;;;3.53;;
36373;SDS011;22399;51.346;12.372;2023-03-03T04:21:36;11.15;;;3.75;;
36373;SDS011;22399;51.346;12.372;2023-03-03T04:24:06;12.82;;;3.85;;
36373;SDS011;22399;51.346;12.372;2023-03-03T04:26:36;11.18;;;3.85;;
36373;SDS011;22399;51.346;12.372;2023-03-03T04:29:05;11.23;;;3.10;;
36373;SDS011;22399;51.346;12.372;2023-03-03T04:31:35;12.30;;;3.88;;
36373;SDS011;22399;51.346;12.372;2023-03-03T04:34:06;10.52;;;3.22;;
36373;SDS011;22399;51.346;12.372;2023-03-03T04:36:35;10.60;;;3.42;;
36373;SDS011;22399;51.346;12.372;2023-03-03T04:39:04;6.65;;;2.28;;
36373;SDS011;22399;51.346;12.372;2023-03-03T04:41:32;10.10;;;3.75;;
36373;SDS011;22399;51.346;12.372;2023-03-03T04:44:00;28.30;;;7.05;;
36373;SDS011;22399;51.346;12.372;2023-03-03T04:46:29;17.15;;;4.50;;
36373;SDS011;22399;51.346;12.372;2023-03-03T04:48:59;8.10;;;3.83;;
36373;SDS011;22399;51.346;12.372;2023-03-03T04:51:27;17.88;;;4.53;;
36373;SDS011;22399;51.346;12.372;2023-03-03T04:53:59;13.05;;;3.80;;
36373;SDS011;22399;51.346;12.372;2023-03-03T04:56:29;12.10;;;4.13;;
36373;SDS011;22399;51.346;12.372;2023-03-03T04:58:58;18.70;;;5.60;;
36373;SDS011;22399;51.346;12.372;2023-03-03T05:01:27;11.23;;;3.70;;
36373;SDS011;22399;51.346;12.372;2023-03-03T05:03:55;18.38;;;3.92;;
36373;SDS011;22399;51.346;12.372;2023-03-03T05:06:25;10.20;;;4.78;;
36373;SDS011;22399;51.346;12.372;2023-03-03T05:08:53;18.13;;;4.78;;
36373;SDS011;22399;51.346;12.372;2023-03-03T05:11:21;11.88;;;4.00;;
36373;SDS011;22399;51.346;12.372;2023-03-03T05:13:49;13.48;;;3.15;;
36373;SDS011;22399;51.346;12.372;2023-03-03T05:16:18;13.98;;;3.97;;
36373;SDS011;22399;51.346;12.372;2023-03-03T05:18:46;12.70;;;3.97;;
36373;SDS011;22399;51.346;12.372;2023-03-03T05:21:14;11.70;;;3.42;;
36373;SDS011;22399;51.346;12.372;2023-03-03T05:23:44;7.93;;;3.13;;
36373;SDS011;22399;51.346;12.372;2023-03-03T05:26:12;18.80;;;3.70;;
36373;SDS011;22399;51.346;12.372;2023-03-03T05:28:41;7.22;;;2.72;;
36373;SDS011;22399;51.346;12.372;2023-03-03T05:31:09;10.10;;;3.05;;
36373;SDS011;22399;51.346;12.372;2023-03-03T05:33:37;13.95;;;3.53;;
36373;SDS011;22399;51.346;12.372;2023-03-03T05:36:06;10.02;;;3.05;;
36373;SDS011;22399;51.346;12.372;2023-03-03T05:38:34;10.43;;;3.58;;
36373;SDS011;22399;51.346;12.372;2023-03-03T05:41:04;8.07;;;2.80;;
36373;SDS011;22399;51.346;12.372;2023-03-03T05:43:32;10.60;;;3.22;;
36373;SDS011;22399;51.346;12.372;2023-03-03T05:46:01;11.00;;;3.30;;
36373;SDS011;22399;51.346;12.372;2023-03-03T05:48:29;11.77;;;3.35;;
36373;SDS011;22399;51.346;12.372;2023-03-03T05:50:57;12.80;;;3.10;;
36373;SDS011;22399;51.346;12.372;2023-03-03T05:53:27;6.07;;;2.60;;
36373;SDS011;22399;51.346;12.372;2023-03-03T05:55:56;11.38;;;3.50;;
36373;SDS011;22399;51.346;12.372;2023-03-03T05:58:26;10.88;;;3.75;;
36373;SDS011;22399;51.346;12.372;2023-03-03T06:00:54;10.77;;;3.20;;
36373;SDS011;22399;51.346;12.372;2023-03-03T06:03:23;9.15;;;2.97;;
36373;SDS011;22399;51.346;12.372;2023-03-03T06:05:51;12.18;;;4.15;;
36373;SDS011;22399;51.346;12.372;2023-03-03T06:08:20;11.77;;;3.00;;
36373;SDS011;22399;51.346;12.372;2023-03-03T06:10:48;11.25;;;3.47;;
36373;SDS011;22399;51.346;12.372;2023-03-03T06:13:16;11.73;;;3.70;;
36373;SDS011;22399;51.346;12.372;2023-03-03T06:15:46;20.02;;;4.15;;
36373;SDS011;22399;51.346;12.372;2023-03-03T06:18:14;9.90;;;3.92;;
36373;SDS011;22399;51.346;12.372;2023-03-03T06:20:43;18.02;;;4.75;;
36373;SDS011;22399;51.346;12.372;2023-03-03T06:23:11;15.68;;;5.25;;
36373;SDS011;22399;51.346;12.372;2023-03-03T06:25:39;8.98;;;4.07;;
36373;SDS011;22399;51.346;12.372;2023-03-03T06:28:08;8.73;;;3.33;;
36373;SDS011;22399;51.346;12.372;2023-03-03T06:30:36;12.90;;;3.53;;
36373;SDS011;22399;51.346;12.372;2023-03-03T06:33:06;7.70;;;3.13;;
36373;SDS011;22399;51.346;12.372;2023-03-03T06:35:34;11.68;;;3.35;;
36373;SDS011;22399;51.346;12.372;2023-03-03T06:38:03;16.05;;;4.18;;
36373;SDS011;22399;51.346;12.372;2023-03-03T06:40:31;11.88;;;3.97;;
36373;SDS011;22399;51.346;12.372;2023-03-03T06:43:00;12.27;;;3.53;;
36373;SDS011;22399;51.346;12.372;2023-03-03T06:45:29;14.65;;;3.33;;
36373;SDS011;22399;51.346;12.372;2023-03-03T06:47:58;9.48;;;3.65;;
36373;SDS011;22399;51.346;12.372;2023-03-03T06:50:27;14.73;;;3.63;;
36373;SDS011;22399;51.346;12.372;2023-03-03T06:52:58;14.55;;;3.72;;
36373;SDS011;22399;51.346;12.372;2023-03-03T06:55:31;12.88;;;3.95;;
36373;SDS011;22399;51.346;12.372;2023-03-03T06:58:00;9.82;;;3.17;;
36373;SDS011;22399;51.346;12.372;2023-03-03T07:00:29;9.48;;;2.70;;
36373;SDS011;22399;51.346;12.372;2023-03-03T07:02:58;11.57;;;3.13;;
36373;SDS011;22399;51.346;12.372;2023-03-03T07:05:30;11.52;;;3.17;;
36373;SDS011;22399;51.346;12.372;2023-03-03T07:08:00;13.73;;;3.28;;
36373;SDS011;22399;51.346;12.372;2023-03-03T07:10:28;21.55;;;5.57;;
36373;SDS011;22399;51.346;12.372;2023-03-03T07:13:01;9.82;;;3.55;;
36373;SDS011;22399;51.346;12.372;2023-03-03T07:15:44;18.73;;;4.00;;
36373;SDS011;22399;51.346;12.372;2023-03-03T07:18:22;13.18;;;4.20;;
36373;SDS011;22399;51.346;12.372;2023-03-03T07:21:04;9.35;;;4.53;;
36373;SDS011;22399;51.346;12.372;2023-03-03T07:23:39;10.90;;;3.65;;
36373;SDS011;22399;51.346;12.372;2023-03-03T07:26:09;11.90;;;3.17;;
36373;SDS011;22399;51.346;12.372;2023-03-03T07:28:40;12.98;;;3.97;;
36373;SDS011;22399;51.346;12.372;2023-03-03T07:31:21;11.27;;;3.80;;
36373;SDS011;22399;51.346;12.372;2023-03-03T07:33:56;10.73;;;4.53;;
36373;SDS011;22399;51.346;12.372;2023-03-03T07:36:29;16.67;;;4.53;;
36373;SDS011;22399;51.346;12.372;2023-03-03T07:38:59;15.57;;;4.80;;
36373;SDS011;22399;51.346;12.372;2023-03-03T07:41:31;13.00;;;4.90;;
36373;SDS011;22399;51.346;12.372;2023-03-03T07:44:03;14.32;;;4.05;;
36373;SDS011;22399;51.346;12.372;2023-03-03T07:46:34;21.85;;;7.32;;
36373;SDS011;22399;51.346;12.372;2023-03-03T07:49:12;19.05;;;4.18;;
36373;SDS011;22399;51.346;12.372;2023-03-03T07:51:52;22.27;;;6.93;;
36373;SDS011;22399;51.346;12.372;2023-03-03T07:54:26;18.85;;;6.35;;
36373;SDS011;22399;51.346;12.372;2023-03-03T07:56:59;24.27;;;6.05;;
36373;SDS011;22399;51.346;12.372;2023-03-03T07:59:40;38.67;;;10.07;;
36373;SDS011;22399;51.346;12.372;2023-03-03T08:02:17;22.23;;;7.35;;
36373;SDS011;22399;51.346;12.372;2023-03-03T08:08:13;29.73;;;7.15;;
36373;SDS011;22399;51.346;12.372;2023-03-03T08:10:48;18.77;;;5.38;;
36373;SDS011;22399;51.346;12.372;2023-03-03T08:13:19;17.85;;;5.72;;
36373;SDS011;22399;51.346;12.372;2023-03-03T08:15:49;13.63;;;4.95;;
36373;SDS011;22399;51.346;12.372;2023-03-03T08:18:21;24.02;;;5.63;;
36373;SDS011;22399;51.346;12.372;2023-03-03T08:20:52;14.13;;;4.38;;
36373;SDS011;22399;51.346;12.372;2023-03-03T08:23:24;15.77;;;5.47;;
36373;SDS011;22399;51.346;12.372;2023-03-03T08:25:52;23.95;;;5.75;;
36373;SDS011;22399;51.346;12.372;2023-03-03T08:28:21;15.77;;;5.25;;
36373;SDS011;22399;51.346;12.372;2023-03-03T08:30:49;15.50;;;4.28;;
36373;SDS011;22399;51.346;12.372;2023-03-03T08:33:34;12.17;;;4.00;;
36373;SDS011;22399;51.346;12.372;2023-03-03T08:36:03;10.82;;;4.28;;
36373;SDS011;22399;51.346;12.372;2023-03-03T08:38:36;19.40;;;4.82;;
36373;SDS011;22399;51.346;12.372;2023-03-03T08:41:04;23.52;;;6.00;;
36373;SDS011;22399;51.346;12.372;2023-03-03T08:43:33;13.02;;;4.28;;
36373;SDS011;22399;51.346;12.372;2023-03-03T08:46:02;15.05;;;4.20;;
36373;SDS011;22399;51.346;12.372;2023-03-03T08:48:32;14.13;;;4.82;;
36373;SDS011;22399;51.346;12.372;2023-03-03T08:51:01;22.88;;;4.88;;
36373;SDS011;22399;51.346;12.372;2023-03-03T08:53:30;19.75;;;5.53;;
36373;SDS011;22399;51.346;12.372;2023-03-03T08:56:03;16.27;;;5.45;;
36373;SDS011;22399;51.346;12.372;2023-03-03T08:58:33;21.25;;;7.35;;
36373;SDS011;22399;51.346;12.372;2023-03-03T09:01:02;13.98;;;4.10;;
36373;SDS011;22399;51.346;12.372;2023-03-03T09:03:30;19.42;;;5.00;;
36373;SDS011;22399;51.346;12.372;2023-03-03T09:05:59;17.40;;;5.25;;
36373;SDS011;22399;51.346;12.372;2023-03-03T09:08:27;28.58;;;7.28;;
36373;SDS011;22399;51.346;12.372;2023-03-03T09:10:55;15.30;;;4.85;;
36373;SDS011;22399;51.346;12.372;2023-03-03T09:13:26;11.82;;;3.97;;
36373;SDS011;22399;51.346;12.372;2023-03-03T09:15:57;10.85;;;4.10;;
36373;SDS011;22399;51.346;12.372;2023-03-03T09:18:28;9.70;;;3.75;;
36373;SDS011;22399;51.346;12.372;2023-03-03T09:21:05;24.42;;;5.80;;
36373;SDS011;22399;51.346;12.372;2023-03-03T09:23:52;16.92;;;4.90;;
36373;SDS011;22399;51.346;12.372;2023-03-03T09:26:22;11.95;;;3.70;;
36373;SDS011;22399;51.346;12.372;2023-03-03T09:28:57;18.48;;;5.43;;
36373;SDS011;22399;51.346;12.372;2023-03-03T09:31:35;21.20;;;6.30;;
36373;SDS011;22399;51.346;12.372;2023-03-03T09:36:55;14.05;;;3.85;;
36373;SDS011;22399;51.346;12.372;2023-03-03T09:39:25;12.00;;;3.97;;
36373;SDS011;22399;51.346;12.372;2023-03-03T09:45:31;14.55;;;4.95;;
36373;SDS011;22399;51.346;12.372;2023-03-03T09:48:36;18.60;;;6.15;;
36373;SDS011;22399;51.346;12.372;2023-03-03T09:51:29;10.32;;;3.55;;
36373;SDS011;22399;51.346;12.372;2023-03-03T09:54:25;14.10;;;5.03;;
36373;SDS011;22399;51.346;12.372;2023-03-03T09:57:06;19.77;;;5.15;;
36373;SDS011;22399;51.346;12.372;2023-03-03T09:59:43;16.45;;;3.88;;
36373;SDS011;22399;51.346;12.372;2023-03-03T10:02:27;12.15;;;4.75;;
36373;SDS011;22399;51.346;12.372;2023-03-03T10:05:13;16.10;;;4.35;;
36373;SDS011;22399;51.346;12.372;2023-03-03T10:07:52;15.73;;;4.57;;
36373;SDS011;22399;51.346;12.372;2023-03-03T10:13:19;22.60;;;4.78;;
36373;SDS011;22399;51.346;12.372;2023-03-03T10:16:07;17.98;;;4.22;;
36373;SDS011;22399;51.346;12.372;2023-03-03T10:18:44;18.65;;;4.70;;
36373;SDS011;22399;51.346;12.372;2023-03-03T10:21:20;16.35;;;4.55;;
36373;SDS011;22399;51.346;12.372;2023-03-03T10:23:52;10.90;;;3.00;;
36373;SDS011;22399;51.346;12.372;2023-03-03T10:26:32;18.90;;;5.22;;
36373;SDS011;22399;51.346;12.372;2023-03-03T10:29:16;16.45;;;4.68;;
36373;SDS011;22399;51.346;12.372;2023-03-03T10:31:54;23.08;;;6.43;;
36373;SDS011;22399;51.346;12.372;2023-03-03T10:35:01;22.27;;;6.20;;
36373;SDS011;22399;51.346;12.372;2023-03-03T10:37:48;15.60;;;4.82;;
36373;SDS011;22399;51.346;12.372;2023-03-03T10:40:25;20.40;;;5.25;;
36373;SDS011;22399;51.346;12.372;2023-03-03T10:43:06;16.48;;;4.70;;
36373;SDS011;22399;51.346;12.372;2023-03-03T10:46:09;20.25;;;5.35;;
36373;SDS011;22399;51.346;12.372;2023-03-03T10:49:09;14.30;;;4.70;;
36373;SDS011;22399;51.346;12.372;2023-03-03T10:51:54;30.25;;;7.63;;
36373;SDS011;22399;51.346;12.372;2023-03-03T10:54:40;17.20;;;5.50;;
36373;SDS011;22399;51.346;12.372;2023-03-03T10:57:20;24.88;;;4.82;;
36373;SDS011;22399;51.346;12.372;2023-03-03T10:59:56;30.92;;;4.95;;
36373;SDS011;22399;51.346;12.372;2023-03-03T11:02:35;19.25;;;4.88;;
36373;SDS011;22399;51.346;12.372;2023-03-03T11:05:26;14.98;;;4.82;;
36373;SDS011;22399;51.346;12.372;2023-03-03T11:08:02;15.77;;;4.07;;
36373;SDS011;22399;51.346;12.372;2023-03-03T11:10:43;26.92;;;5.43;;
36373;SDS011;22399;51.346;12.372;2023-03-03T11:13:18;11.73;;;3.75;;
36373;SDS011;22399;51.346;12.372;2023-03-03T11:15:56;19.27;;;5.03;;
36373;SDS011;22399;51.346;12.372;2023-03-03T11:18:44;23.88;;;5.50;;
36373;SDS011;22399;51.346;12.372;2023-03-03T11:21:28;23.75;;;4.45;;
36373;SDS011;22399;51.346;12.372;2023-03-03T11:24:08;17.67;;;6.13;;
36373;SDS011;22399;51.346;12.372;2023-03-03T11:26:47;24.90;;;5.85;;
36373;SDS011;22399;51.346;12.372;2023-03-03T11:29:29;31.30;;;6.25;;
36373;SDS011;22399;51.346;12.372;2023-03-03T11:32:11;18.23;;;5.50;;
36373;SDS011;22399;51.346;12.372;2023-03-03T11:34:53;29.10;;;5.85;;
36373;SDS011;22399;51.346;12.372;2023-03-03T11:37:27;20.80;;;5.55;;
36373;SDS011;22399;51.346;12.372;2023-03-03T11:40:08;29.88;;;6.95;;
36373;SDS011;22399;51.346;12.372;2023-03-03T11:42:45;28.17;;;8.13;;
36373;SDS011;22399;51.346;12.372;2023-03-03T11:45:21;29.42;;;6.18;;
36373;SDS011;22399;51.346;12.372;2023-03-03T11:47:57;35.28;;;8.15;;
36373;SDS011;22399;51.346;12.372;2023-03-03T11:50:34;21.17;;;5.55;;
36373;SDS011;22399;51.346;12.372;2023-03-03T11:53:11;18.30;;;5.73;;
36373;SDS011;22399;51.346;12.372;2023-03-03T11:55:55;16.20;;;5.05;;
36373;SDS011;22399;51.346;12.372;2023-03-03T11:58:27;29.60;;;7.32;;
36373;SDS011;22399;51.346;12.372;2023-03-03T12:00:59;34.63;;;5.85;;
36373;SDS011;22399;51.346;12.372;2023-03-03T12:03:35;21.00;;;7.03;;
36373;SDS011;22399;51.346;12.372;2023-03-03T12:06:11;40.70;;;9.43;;
36373;SDS011;22399;51.346;12.372;2023-03-03T12:09:00;26.75;;;6.15;;
36373;SDS011;22399;51.346;12.372;2023-03-03T12:11:48;30.42;;;5.95;;
36373;SDS011;22399;51.346;12.372;2023-03-03T12:14:24;28.93;;;5.13;;
36373;SDS011;22399;51.346;12.372;2023-03-03T12:17:05;14.98;;;3.70;;
36373;SDS011;22399;51.346;12.372;2023-03-03T12:19:43;23.20;;;4.57;;
36373;SDS011;22399;51.346;12.372;2023-03-03T12:22:26;14.00;;;4.75;;
36373;SDS011;22399;51.346;12.372;2023-03-03T12:25:14;13.52;;;3.70;;
36373;SDS011;22399;51.346;12.372;2023-03-03T12:27:59;15.63;;;4.30;;
36373;SDS011;22399;51.346;12.372;2023-03-03T12:30:35;12.73;;;3.85;;
36373;SDS011;22399;51.346;12.372;2023-03-03T12:33:26;10.18;;;3.53;;
36373;SDS011;22399;51.346;12.372;2023-03-03T12:36:03;13.18;;;4.25;;
36373;SDS011;22399;51.346;12.372;2023-03-03T12:38:42;15.95;;;4.35;;
36373;SDS011;22399;51.346;12.372;2023-03-03T12:41:22;8.50;;;3.08;;
36373;SDS011;22399;51.346;12.372;2023-03-03T12:44:00;15.02;;;3.83;;
36373;SDS011;22399;51.346;12.372;2023-03-03T12:46:39;14.00;;;3.80;;
36373;SDS011;22399;51.346;12.372;2023-03-03T12:49:13;16.08;;;4.80;;
36373;SDS011;22399;51.346;12.372;2023-03-03T12:51:44;32.35;;;8.10;;
36373;SDS011;22399;51.346;12.372;2023-03-03T12:54:24;31.77;;;9.02;;
36373;SDS011;22399;51.346;12.372;2023-03-03T12:57:07;19.63;;;5.57;;
36373;SDS011;22399;51.346;12.372;2023-03-03T12:59:49;19.65;;;6.07;;
36373;SDS011;22399;51.346;12.372;2023-03-03T13:02:33;33.08;;;7.43;;
36373;SDS011;22399;51.346;12.372;2023-03-03T13:05:15;24.38;;;5.88;;
36373;SDS011;22399;51.346;12.372;2023-03-03T13:07:50;20.52;;;5.20;;
36373;SDS011;22399;51.346;12.372;2023-03-03T13:10:33;27.52;;;5.50;;
36373;SDS011;22399;51.346;12.372;2023-03-03T13:13:07;21.25;;;6.38;;
36373;SDS011;22399;51.346;12.372;2023-03-03T13:15:44;23.83;;;6.57;;
36373;SDS011;22399;51.346;12.372;2023-03-03T13:18:27;33.10;;;6.93;;
36373;SDS011;22399;51.346;12.372;2023-03-03T13:21:02;25.15;;;7.47;;
36373;SDS011;22399;51.346;12.372;2023-03-03T13:26:10;21.83;;;6.50;;
36373;SDS011;22399;51.346;12.372;2023-03-03T13:28:48;33.00;;;7.55;;
36373;SDS011;22399;51.346;12.372;2023-03-03T13:31:27;35.15;;;10.98;;
36373;SDS011;22399;51.346;12.372;2023-03-03T13:34:00;39.28;;;9.82;;
36373;SDS011;22399;51.346;12.372;2023-03-03T13:36:29;36.88;;;8.75;;
36373;SDS011;22399;51.346;12.372;2023-03-03T13:39:02;25.40;;;6.72;;
36373;SDS011;22399;51.346;12.372;2023-03-03T13:41:39;30.88;;;8.63;;
36373;SDS011;22399;51.346;12.372;2023-03-03T13:44:15;33.30;;;7.93;;
36373;SDS011;22399;51.346;12.372;2023-03-03T13:46:50;27.17;;;6.43;;
36373;SDS011;22399;51.346;12.372;2023-03-03T13:49:37;24.25;;;6.65;;
36373;SDS011;22399;51.346;12.372;2023-03-03T13:52:14;23.70;;;6.47;;
36373;SDS011;22399;51.346;12.372;2023-03-03T13:54:52;29.67;;;9.30;;
36373;SDS011;22399;51.346;12.372;2023-03-03T14:00:29;30.50;;;7.07;;
36373;SDS011;22399;51.346;12.372;2023-03-03T14:03:18;26.75;;;6.55;;
36373;SDS011;22399;51.346;12.372;2023-03-03T14:06:00;22.88;;;7.32;;
36373;SDS011;22399;51.346;12.372;2023-03-03T14:08:35;27.50;;;6.88;;
36373;SDS011;22399;51.346;12.372;2023-03-03T14:11:13;34.42;;;8.23;;
36373;SDS011;22399;51.346;12.372;2023-03-03T14:13:52;24.30;;;6.53;;
36373;SDS011;22399;51.346;12.372;2023-03-03T14:16:33;20.55;;;5.30;;
36373;SDS011;22399;51.346;12.372;2023-03-03T14:19:12;18.42;;;5.40;;
36373;SDS011;22399;51.346;12.372;2023-03-03T14:21:46;25.83;;;6.47;;
36373;SDS011;22399;51.346;12.372;2023-03-03T14:24:32;25.75;;;8.18;;
36373;SDS011;22399;51.346;12.372;2023-03-03T14:27:23;18.70;;;6.25;;
36373;SDS011;22399;51.346;12.372;2023-03-03T14:29:53;30.50;;;7.40;;
36373;SDS011;22399;51.346;12.372;2023-03-03T14:32:22;24.40;;;6.28;;
36373;SDS011;22399;51.346;12.372;2023-03-03T14:35:14;30.05;;;6.85;;
36373;SDS011;22399;51.346;12.372;2023-03-03T14:37:47;21.00;;;6.22;;
36373;SDS011;22399;51.346;12.372;2023-03-03T14:40:18;22.17;;;6.57;;
36373;SDS011;22399;51.346;12.372;2023-03-03T14:42:47;24.77;;;7.25;;
36373;SDS011;22399;51.346;12.372;2023-03-03T14:45:27;21.15;;;6.47;;
36373;SDS011;22399;51.346;12.372;2023-03-03T14:47:59;43.03;;;8.95;;
36373;SDS011;22399;51.346;12.372;2023-03-03T14:50:39;25.80;;;7.75;;
36373;SDS011;22399;51.346;12.372;2023-03-03T14:53:13;25.75;;;6.30;;
36373;SDS011;22399;51.346;12.372;2023-03-03T14:55:47;37.65;;;6.85;;
36373;SDS011;22399;51.346;12.372;2023-03-03T14:58:23;15.15;;;5.05;;
36373;SDS011;22399;51.346;12.372;2023-03-03T15:01:08;26.63;;;6.32;;
36373;SDS011;22399;51.346;12.372;2023-03-03T15:03:44;20.17;;;5.75;;
36373;SDS011;22399;51.346;12.372;2023-03-03T15:06:29;13.55;;;4.05;;
36373;SDS011;22399;51.346;12.372;2023-03-03T15:09:23;14.93;;;4.78;;
36373;SDS011;22399;51.346;12.372;2023-03-03T15:12:18;15.90;;;4.47;;
36373;SDS011;22399;51.346;12.372;2023-03-03T15:14:48;23.00;;;6.35;;
36373;SDS011;22399;51.346;12.372;2023-03-03T15:17:19;21.02;;;5.35;;
36373;SDS011;22399;51.346;12.372;2023-03-03T15:19:55;21.50;;;6.50;;
36373;SDS011;22399;51.346;12.372;2023-03-03T15:23:02;20.95;;;6.45;;